createdAt,value
2023-04-16T00:01:03.225Z,100810.73
2023-04-16T00:03:34.933Z,100812.48
2023-04-16T00:06:03.669Z,100818.80
2023-04-16T00:08:31.916Z,100816.27
2023-04-16T00:10:59.986Z,100819.34
2023-04-16T00:13:28.164Z,100827.23
2023-04-16T00:15:56.335Z,100835.98
2023-04-16T00:18:25.132Z,100837.77
2023-04-16T00:20:53.811Z,100841.37
2023-04-16T00:23:22.005Z,100840.70
2023-04-16T00:25:50.258Z,100845.08
2023-04-16T00:28:18.539Z,100837.73
2023-04-16T00:30:46.741Z,100843.02
2023-04-16T00:33:16.114Z,100838.77
2023-04-16T00:35:48.187Z,100845.83
2023-04-16T00:38:16.860Z,100850.65
2023-04-16T00:40:45.447Z,100847.02
2023-04-16T00:43:23.235Z,100853.72
2023-04-16T00:45:53.462Z,100858.27
2023-04-16T00:48:21.987Z,100857.22
2023-04-16T00:50:50.321Z,100854.86
2023-04-16T00:53:19.621Z,100858.98
2023-04-16T00:55:48.002Z,100857.23
2023-04-16T00:58:17.014Z,100857.70
2023-04-16T01:00:45.570Z,100854.74
2023-04-16T01:03:13.913Z,100853.48
2023-04-16T01:05:42.334Z,100852.32
2023-04-16T01:08:21.626Z,100847.64
2023-04-16T01:10:49.847Z,100853.64
2023-04-16T01:13:18.125Z,100852.84
2023-04-16T01:15:46.308Z,100846.17
2023-04-16T01:18:18.794Z,100849.02
2023-04-16T01:20:50.630Z,100848.70
2023-04-16T01:23:19.833Z,100853.20
2023-04-16T01:25:48.408Z,100846.06
2023-04-16T01:28:17.118Z,100847.95
2023-04-16T01:30:45.379Z,100848.83
2023-04-16T01:33:21.750Z,100848.01
2023-04-16T01:35:50.020Z,100848.89
2023-04-16T01:38:18.293Z,100851.91
2023-04-16T01:40:46.461Z,100848.27
2023-04-16T01:43:14.760Z,100847.34
2023-04-16T01:45:43.121Z,100847.77
2023-04-16T01:48:13.343Z,100847.32
2023-04-16T01:50:42.234Z,100843.36
2023-04-16T01:53:10.919Z,100846.50
2023-04-16T01:55:39.090Z,100847.15
2023-04-16T01:58:10.740Z,100843.12
2023-04-16T02:00:39.668Z,100841.91
2023-04-16T02:03:08.259Z,100844.54
2023-04-16T02:05:36.700Z,100843.08
2023-04-16T02:08:05.481Z,100844.04
2023-04-16T02:10:33.869Z,100851.02
2023-04-16T02:13:02.645Z,100852.86
2023-04-16T02:15:31.127Z,100852.25
2023-04-16T02:17:59.329Z,100854.38
2023-04-16T02:20:27.473Z,100858.78
2023-04-16T02:22:58.716Z,100856.67
2023-04-16T02:25:27.617Z,100854.85
2023-04-16T02:27:56.606Z,100852.33
2023-04-16T02:30:39.106Z,100851.73
2023-04-16T02:33:11.620Z,100853.73
2023-04-16T02:35:41.606Z,100854.02
2023-04-16T02:38:09.876Z,100854.79
2023-04-16T02:40:38.258Z,100858.02
2023-04-16T02:43:06.939Z,100856.55
2023-04-16T02:45:35.584Z,100857.54
2023-04-16T02:48:04.292Z,100855.17
2023-04-16T02:50:32.483Z,100859.61
2023-04-16T02:53:00.862Z,100862.08
2023-04-16T02:55:29.652Z,100863.21
2023-04-16T02:57:58.045Z,100861.60
2023-04-16T03:00:26.307Z,100860.67
2023-04-16T03:02:54.740Z,100861.44
2023-04-16T03:05:23.160Z,100861.60
2023-04-16T03:07:56.809Z,100862.69
2023-04-16T03:10:25.151Z,100866.31
2023-04-16T03:12:53.214Z,100869.85
2023-04-16T03:15:21.388Z,100873.38
2023-04-16T03:17:49.817Z,100873.27
2023-04-16T03:20:19.378Z,100876.78
2023-04-16T03:22:47.798Z,100879.13
2023-04-16T03:25:16.243Z,100878.02
2023-04-16T03:27:44.610Z,100883.02
2023-04-16T03:30:14.298Z,100875.86
2023-04-16T03:32:42.800Z,100884.39
2023-04-16T03:35:12.788Z,100889.92
2023-04-16T03:37:41.429Z,100892.73
2023-04-16T03:40:09.897Z,100891.89
2023-04-16T03:42:39.187Z,100898.85
2023-04-16T03:45:09.603Z,100894.86
2023-04-16T03:47:38.440Z,100894.41
2023-04-16T03:50:07.353Z,100891.98
2023-04-16T03:52:35.464Z,100896.73
2023-04-16T03:55:04.369Z,100898.95
2023-04-16T03:57:32.829Z,100900.75
2023-04-16T04:00:09.611Z,100903.29
2023-04-16T04:02:48.564Z,100903.96
2023-04-16T04:05:19.693Z,100900.23
2023-04-16T04:07:48.576Z,100898.20
2023-04-16T04:10:17.063Z,100900.50
2023-04-16T04:12:45.643Z,100900.16
2023-04-16T04:15:14.321Z,100899.50
2023-04-16T04:17:43.807Z,100897.94
2023-04-16T04:20:12.670Z,100897.15
2023-04-16T04:22:43.549Z,100900.54
2023-04-16T04:25:14.490Z,100894.30
2023-04-16T04:27:44.000Z,100896.30
2023-04-16T04:30:12.417Z,100893.73
2023-04-16T04:32:41.206Z,100892.21
2023-04-16T04:35:09.981Z,100895.30
2023-04-16T04:37:38.218Z,100896.81
2023-04-16T04:40:13.576Z,100898.54
2023-04-16T04:42:41.784Z,100898.45
2023-04-16T04:45:11.729Z,100898.91
2023-04-16T04:47:40.018Z,100907.14
2023-04-16T04:50:09.288Z,100910.86
2023-04-16T04:52:37.442Z,100902.73
2023-04-16T04:55:06.530Z,100897.51
2023-04-16T04:57:34.600Z,100904.45
2023-04-16T05:00:04.953Z,100906.44
2023-04-16T05:02:40.923Z,100910.34
2023-04-16T05:05:09.440Z,100908.74
2023-04-16T05:07:37.604Z,100912.89
2023-04-16T05:10:06.344Z,100913.80
2023-04-16T05:12:34.530Z,100914.66
2023-04-16T05:15:02.639Z,100914.29
2023-04-16T05:17:30.984Z,100914.94
2023-04-16T05:19:59.134Z,100912.95
2023-04-16T05:22:27.384Z,100913.48
2023-04-16T05:24:58.095Z,100909.77
2023-04-16T05:27:26.207Z,100904.73
2023-04-16T05:29:54.261Z,100903.48
2023-04-16T05:32:25.919Z,100904.77
2023-04-16T05:34:54.350Z,100907.47
2023-04-16T05:37:22.497Z,100905.42
2023-04-16T05:39:50.999Z,100905.67
2023-04-16T05:42:19.182Z,100911.36
2023-04-16T05:44:47.242Z,100917.55
2023-04-16T05:47:15.756Z,100913.32
2023-04-16T05:49:43.965Z,100919.22
2023-04-16T05:52:12.248Z,100920.33
2023-04-16T05:54:40.978Z,100919.37
2023-04-16T05:57:09.145Z,100922.52
2023-04-16T05:59:37.294Z,100924.33
2023-04-16T06:02:05.816Z,100922.66
2023-04-16T06:04:35.906Z,100920.95
2023-04-16T06:07:04.010Z,100926.17
2023-04-16T06:09:32.172Z,100932.52
2023-04-16T06:12:01.530Z,100935.20
2023-04-16T06:14:29.653Z,100938.52
2023-04-16T06:16:58.148Z,100945.35
2023-04-16T06:19:26.233Z,100943.52
2023-04-16T06:21:54.485Z,100940.40
2023-04-16T06:24:22.746Z,100947.84
2023-04-16T06:26:50.960Z,100945.81
2023-04-16T06:29:19.052Z,100950.71
2023-04-16T06:31:48.525Z,100951.06
2023-04-16T06:34:16.786Z,100937.30
2023-04-16T06:36:44.840Z,100932.86
2023-04-16T06:39:12.918Z,100934.45
2023-04-16T06:41:41.563Z,100926.77
2023-04-16T06:44:09.634Z,100929.73
2023-04-16T06:46:37.840Z,100931.02
2023-04-16T06:49:06.035Z,100932.16
2023-04-16T06:51:35.021Z,100931.25
2023-04-16T06:54:03.098Z,100929.72
2023-04-16T06:56:32.336Z,100929.86
2023-04-16T06:59:01.131Z,100935.89
2023-04-16T07:01:31.325Z,100948.84
2023-04-16T07:03:59.937Z,100953.48
2023-04-16T07:06:28.265Z,100953.39
2023-04-16T07:08:56.350Z,100956.66
2023-04-16T07:11:25.988Z,100960.66
2023-04-16T07:13:54.215Z,100962.39
2023-04-16T07:16:22.503Z,100957.76
2023-04-16T07:18:50.774Z,100956.63
2023-04-16T07:21:19.020Z,100952.46
2023-04-16T07:23:47.138Z,100950.33
2023-04-16T07:26:15.206Z,100950.58
2023-04-16T07:28:43.558Z,100943.11
2023-04-16T07:31:11.907Z,100943.27
2023-04-16T07:33:39.978Z,100946.65
2023-04-16T07:36:08.425Z,100946.33
2023-04-16T07:38:36.556Z,100948.30
2023-04-16T07:41:04.953Z,100952.19
2023-04-16T07:43:33.116Z,100951.66
2023-04-16T07:46:01.294Z,100951.86
2023-04-16T07:48:29.438Z,100951.83
2023-04-16T07:50:58.248Z,100953.94
2023-04-16T07:53:26.317Z,100952.68
2023-04-16T07:55:54.695Z,100954.92
2023-04-16T07:58:22.990Z,100960.83
2023-04-16T08:00:51.966Z,100962.70
2023-04-16T08:03:20.273Z,100962.23
2023-04-16T08:05:48.585Z,100960.52
2023-04-16T08:08:16.831Z,100953.66
2023-04-16T08:10:45.094Z,100953.80
2023-04-16T08:13:13.234Z,100952.20
2023-04-16T08:15:41.745Z,100955.08
2023-04-16T08:18:13.036Z,100953.22
2023-04-16T08:20:41.968Z,100957.12
2023-04-16T08:23:10.089Z,100964.70
2023-04-16T08:25:38.210Z,100968.81
2023-04-16T08:28:06.537Z,100966.18
2023-04-16T08:30:35.023Z,100964.41
2023-04-16T08:33:03.342Z,100967.09
2023-04-16T08:35:31.530Z,100969.31
2023-04-16T08:38:02.160Z,100976.40
2023-04-16T08:40:32.450Z,100969.63
2023-04-16T08:43:05.876Z,100969.33
2023-04-16T08:45:35.371Z,100964.67
2023-04-16T08:48:06.202Z,100965.18
2023-04-16T08:50:35.283Z,100962.84
2023-04-16T08:53:07.704Z,100969.31
2023-04-16T08:55:38.988Z,100970.51
2023-04-16T08:58:13.620Z,100974.52
2023-04-16T09:00:43.673Z,100976.75
2023-04-16T09:03:13.223Z,100975.96
2023-04-16T09:05:42.759Z,100984.40
2023-04-16T09:08:10.893Z,100989.63
2023-04-16T09:10:39.116Z,100983.50
2023-04-16T09:13:09.576Z,100986.62
2023-04-16T09:15:39.163Z,100992.59
2023-04-16T09:18:07.528Z,100991.91
2023-04-16T09:20:35.638Z,100997.05
2023-04-16T09:23:03.790Z,100993.11
2023-04-16T09:25:35.537Z,100998.04
2023-04-16T09:28:03.808Z,101007.70
2023-04-16T09:30:32.136Z,101009.08
2023-04-16T09:33:24.599Z,101013.93
2023-04-16T09:35:53.768Z,101009.50
2023-04-16T09:38:22.180Z,101015.20
2023-04-16T09:41:07.380Z,101022.46
2023-04-16T09:43:35.870Z,101028.22
2023-04-16T09:46:08.065Z,101029.65
2023-04-16T09:48:36.837Z,101025.08
2023-04-16T09:51:07.275Z,101021.77
2023-04-16T09:53:35.399Z,101011.38
2023-04-16T09:56:07.546Z,101007.90
2023-04-16T09:58:38.928Z,101004.30
2023-04-16T10:01:09.651Z,100998.29
2023-04-16T10:03:40.233Z,101003.84
2023-04-16T10:06:19.979Z,101005.27
2023-04-16T10:08:50.355Z,101009.80
2023-04-16T10:11:20.644Z,101007.25
2023-04-16T10:13:49.788Z,101004.48
2023-04-16T10:16:18.421Z,101005.02
2023-04-16T10:18:47.121Z,101005.35
2023-04-16T10:21:16.549Z,101005.73
2023-04-16T10:23:44.791Z,101004.95
2023-04-16T10:26:13.780Z,101000.92
2023-04-16T10:28:42.556Z,100998.88
2023-04-16T10:31:11.085Z,100998.04
2023-04-16T10:33:43.006Z,101006.48
2023-04-16T10:36:15.020Z,101021.08
2023-04-16T10:38:46.892Z,101019.59
2023-04-16T10:41:15.766Z,101015.48
2023-04-16T10:43:46.364Z,101016.98
2023-04-16T10:46:24.670Z,101022.51
2023-04-16T10:48:54.721Z,101022.70
2023-04-16T10:51:34.420Z,101029.54
2023-04-16T10:54:08.709Z,101029.86
2023-04-16T10:56:37.809Z,101023.80
2023-04-16T10:59:13.340Z,101016.73
2023-04-16T11:01:46.614Z,101018.96
2023-04-16T11:04:21.442Z,101017.35
2023-04-16T11:07:14.074Z,101013.09
2023-04-16T11:10:00.183Z,101014.55
2023-04-16T11:12:40.663Z,101014.63
2023-04-16T11:15:14.208Z,101013.09
2023-04-16T11:17:47.798Z,101009.77
2023-04-16T11:20:20.434Z,101007.87
2023-04-16T11:22:51.365Z,101013.05
2023-04-16T11:25:21.870Z,101010.48
2023-04-16T11:27:51.426Z,101012.84
2023-04-16T11:30:33.532Z,101019.73
2023-04-16T11:33:11.729Z,101025.56
2023-04-16T11:35:41.507Z,101024.86
2023-04-16T11:38:09.860Z,101025.05
2023-04-16T11:40:38.058Z,101025.88
2023-04-16T11:43:16.985Z,101029.82
2023-04-16T11:45:58.559Z,101030.55
2023-04-16T11:48:46.825Z,101025.59
2023-04-16T11:51:15.902Z,101026.40
2023-04-16T11:53:54.585Z,101030.77
2023-04-16T11:56:30.907Z,101028.45
2023-04-16T11:59:10.850Z,101027.60
2023-04-16T12:01:41.416Z,101028.40
2023-04-16T12:04:10.268Z,101034.02
2023-04-16T12:06:38.653Z,101028.74
2023-04-16T12:09:26.322Z,101017.81
2023-04-16T12:11:54.703Z,101010.41
2023-04-16T12:14:23.953Z,101007.71
2023-04-16T12:16:52.218Z,101001.14
2023-04-16T12:19:20.519Z,100998.25
2023-04-16T12:21:50.480Z,100996.23
2023-04-16T12:24:24.248Z,101007.14
2023-04-16T12:26:57.524Z,101014.25
2023-04-16T12:29:27.757Z,101016.69
2023-04-16T12:31:55.979Z,101010.42
2023-04-16T12:34:41.880Z,101010.82
2023-04-16T12:37:13.146Z,101005.79
2023-04-16T12:39:41.749Z,101000.99
2023-04-16T12:42:11.524Z,101005.08
2023-04-16T12:44:39.853Z,101008.02
2023-04-16T12:47:07.975Z,101001.38
2023-04-16T12:49:37.466Z,100998.84
2023-04-16T12:52:06.480Z,100999.27
2023-04-16T12:54:34.635Z,100996.63
2023-04-16T12:57:03.712Z,100991.48
2023-04-16T12:59:31.952Z,100989.50
2023-04-16T13:02:02.951Z,100977.55
2023-04-16T13:04:31.428Z,100970.93
2023-04-16T13:07:00.661Z,100971.81
2023-04-16T13:09:28.941Z,100974.59
2023-04-16T13:11:57.230Z,100976.84
2023-04-16T13:14:26.519Z,100976.10
2023-04-16T13:16:54.584Z,100976.98
2023-04-16T13:19:22.769Z,100973.95
2023-04-16T13:21:50.930Z,100971.84
2023-04-16T13:24:19.522Z,100974.62
2023-04-16T13:26:47.795Z,100975.24
2023-04-16T13:29:16.173Z,100979.15
2023-04-16T13:31:44.376Z,100981.82
2023-04-16T13:34:12.826Z,100985.19
2023-04-16T13:36:41.103Z,100985.43
2023-04-16T13:39:12.207Z,100986.14
2023-04-16T13:41:40.736Z,100987.07
2023-04-16T13:44:09.105Z,100984.66
2023-04-16T13:46:37.464Z,100987.48
2023-04-16T13:49:05.757Z,100988.40
2023-04-16T13:51:33.833Z,100990.13
2023-04-16T13:54:02.101Z,100990.38
2023-04-16T13:56:30.275Z,100986.02
2023-04-16T13:58:58.448Z,100986.13
2023-04-16T14:01:26.629Z,100986.23
2023-04-16T14:03:54.839Z,100983.41
2023-04-16T14:06:23.080Z,100986.15
2023-04-16T14:08:51.859Z,100986.88
2023-04-16T14:11:20.019Z,100982.43
2023-04-16T14:13:48.206Z,100982.14
2023-04-16T14:16:16.422Z,100984.92
2023-04-16T14:18:44.863Z,100981.21
2023-04-16T14:21:13.648Z,100971.62
2023-04-16T14:23:42.383Z,100971.07
2023-04-16T14:26:10.618Z,100972.17
2023-04-16T14:28:39.913Z,100974.60
2023-04-16T14:31:08.322Z,100972.36
2023-04-16T14:33:37.056Z,100974.52
2023-04-16T14:36:05.813Z,100977.41
2023-04-16T14:38:34.140Z,100979.73
2023-04-16T14:41:02.248Z,100978.32
2023-04-16T14:43:31.065Z,100980.01
2023-04-16T14:46:00.150Z,100983.36
2023-04-16T14:48:28.449Z,100989.94
2023-04-16T14:50:56.749Z,100991.64
2023-04-16T14:53:25.438Z,100992.27
2023-04-16T14:55:53.767Z,100991.98
2023-04-16T14:58:22.039Z,100988.37
2023-04-16T15:00:50.268Z,100994.56
2023-04-16T15:03:18.567Z,101001.48
2023-04-16T15:05:55.370Z,101005.20
2023-04-16T15:08:24.590Z,100999.10
2023-04-16T15:10:52.645Z,101003.18
2023-04-16T15:13:20.818Z,101000.84
2023-04-16T15:15:50.023Z,100996.20
2023-04-16T15:18:18.284Z,100991.63
2023-04-16T15:20:46.401Z,100985.77
2023-04-16T15:23:14.551Z,100979.84
2023-04-16T15:25:42.750Z,100980.30
2023-04-16T15:28:10.960Z,100987.36
2023-04-16T15:30:41.343Z,100995.16
2023-04-16T15:33:09.567Z,100998.50
2023-04-16T15:35:41.242Z,100999.14
2023-04-16T15:38:09.408Z,101001.30
2023-04-16T15:40:37.680Z,100999.20
2023-04-16T15:43:07.195Z,100988.66
2023-04-16T15:45:35.410Z,100988.66
2023-04-16T15:48:05.540Z,100998.52
2023-04-16T15:50:34.126Z,101005.17
2023-04-16T15:53:02.389Z,101005.21
2023-04-16T15:55:30.973Z,101000.73
2023-04-16T15:57:59.008Z,100997.83
2023-04-16T16:00:27.909Z,100999.15
2023-04-16T16:02:56.374Z,100993.20
2023-04-16T16:05:24.590Z,100994.52
2023-04-16T16:07:53.084Z,100997.49
2023-04-16T16:10:21.178Z,100999.20
2023-04-16T16:12:49.480Z,101000.88
2023-04-16T16:15:17.697Z,100998.24
2023-04-16T16:17:46.014Z,100995.94
2023-04-16T16:20:14.816Z,100994.13
2023-04-16T16:22:45.342Z,100996.52
2023-04-16T16:25:13.405Z,101001.42
2023-04-16T16:27:42.468Z,101007.27
2023-04-16T16:30:11.303Z,101008.16
2023-04-16T16:32:41.244Z,101006.70
2023-04-16T16:35:11.173Z,101004.45
2023-04-16T16:37:39.444Z,101003.46
2023-04-16T16:40:08.232Z,101005.39
2023-04-16T16:42:36.411Z,101009.75
2023-04-16T16:45:06.189Z,101014.61
2023-04-16T16:47:34.476Z,101022.11
2023-04-16T16:50:03.285Z,101014.50
2023-04-16T16:52:32.326Z,101021.10
2023-04-16T16:55:01.471Z,101021.73
2023-04-16T16:57:29.635Z,101025.92
2023-04-16T16:59:57.753Z,101022.65
2023-04-16T17:02:26.274Z,101019.70
2023-04-16T17:04:55.019Z,101026.39
2023-04-16T17:07:23.093Z,101031.66
2023-04-16T17:09:51.294Z,101031.60
2023-04-16T17:12:19.508Z,101029.85
2023-04-16T17:14:50.559Z,101035.48
2023-04-16T17:17:19.197Z,101036.67
2023-04-16T17:19:47.511Z,101041.02
2023-04-16T17:22:15.782Z,101036.99
2023-04-16T17:24:44.275Z,101039.11
2023-04-16T17:27:12.542Z,101047.65
2023-04-16T17:29:40.700Z,101046.73
2023-04-16T17:32:08.805Z,101050.61
2023-04-16T17:34:37.061Z,101050.42
2023-04-16T17:37:05.435Z,101050.29
2023-04-16T17:39:33.615Z,101047.84
2023-04-16T17:42:03.152Z,101054.61
2023-04-16T17:44:31.400Z,101053.21
2023-04-16T17:46:59.616Z,101051.98
2023-04-16T17:49:27.951Z,101047.31
2023-04-16T17:51:56.187Z,101051.17
2023-04-16T17:54:25.431Z,101046.85
2023-04-16T17:56:53.629Z,101050.22
2023-04-16T17:59:22.025Z,101049.77
2023-04-16T18:01:50.281Z,101054.11
2023-04-16T18:04:19.093Z,101056.11
2023-04-16T18:06:47.688Z,101057.74
2023-04-16T18:09:15.888Z,101058.36
2023-04-16T18:11:43.973Z,101059.59
2023-04-16T18:14:14.289Z,101051.42
2023-04-16T18:16:42.665Z,101050.55
2023-04-16T18:19:11.489Z,101051.61
2023-04-16T18:21:39.939Z,101051.89
2023-04-16T18:24:08.390Z,101051.27
2023-04-16T18:26:37.552Z,101049.98
2023-04-16T18:29:05.951Z,101047.49
2023-04-16T18:31:34.134Z,101052.41
2023-04-16T18:34:02.377Z,101047.34
2023-04-16T18:36:31.292Z,101043.05
2023-04-16T18:39:02.096Z,101041.52
2023-04-16T18:41:47.993Z,101040.61
2023-04-16T18:44:17.331Z,101038.77
2023-04-16T18:46:46.244Z,101037.84
2023-04-16T18:49:14.418Z,101037.00
2023-04-16T18:51:42.544Z,101038.03
2023-04-16T18:54:10.656Z,101032.21
2023-04-16T18:56:38.830Z,101035.14
2023-04-16T18:59:07.112Z,101036.48
2023-04-16T19:01:35.283Z,101027.33
2023-04-16T19:04:03.797Z,101023.30
2023-04-16T19:06:32.746Z,101027.91
2023-04-16T19:09:00.938Z,101029.61
2023-04-16T19:11:29.333Z,101035.42
2023-04-16T19:13:57.957Z,101036.77
2023-04-16T19:16:26.240Z,101041.51
2023-04-16T19:18:54.435Z,101039.18
2023-04-16T19:21:22.680Z,101032.85
2023-04-16T19:23:50.887Z,101032.91
2023-04-16T19:26:19.177Z,101038.41
2023-04-16T19:28:47.320Z,101036.45
2023-04-16T19:31:15.801Z,101028.00
2023-04-16T19:33:43.958Z,101031.99
2023-04-16T19:36:12.103Z,101030.52
2023-04-16T19:38:40.162Z,101028.06
2023-04-16T19:41:08.305Z,101030.52
2023-04-16T19:43:37.169Z,101030.89
2023-04-16T19:46:05.444Z,101032.29
2023-04-16T19:48:33.627Z,101028.01
2023-04-16T19:51:03.542Z,101026.48
2023-04-16T19:53:31.959Z,101024.42
2023-04-16T19:56:00.072Z,101025.61
2023-04-16T19:58:28.343Z,101024.94
2023-04-16T20:00:56.531Z,101017.58
2023-04-16T20:03:25.302Z,101016.10
2023-04-16T20:05:53.417Z,101020.53
2023-04-16T20:08:21.566Z,101022.95
2023-04-16T20:10:49.735Z,101023.29
2023-04-16T20:13:18.827Z,101022.04
2023-04-16T20:15:47.557Z,101022.30
2023-04-16T20:18:15.738Z,101022.38
2023-04-16T20:20:43.940Z,101022.14
2023-04-16T20:23:12.206Z,101025.33
2023-04-16T20:25:43.857Z,101026.08
2023-04-16T20:28:12.689Z,101023.66
2023-04-16T20:30:40.826Z,101022.50
2023-04-16T20:33:09.481Z,101014.85
2023-04-16T20:35:37.852Z,101020.47
2023-04-16T20:38:05.933Z,101019.08
2023-04-16T20:40:34.154Z,101012.77
2023-04-16T20:43:02.335Z,101009.09
2023-04-16T20:45:38.474Z,101006.30
2023-04-16T20:48:07.785Z,101008.23
2023-04-16T20:50:36.214Z,101005.35
2023-04-16T20:53:04.386Z,101007.55
2023-04-16T20:55:32.470Z,101004.09
2023-04-16T20:58:00.632Z,101002.98
2023-04-16T21:00:29.449Z,100998.66
2023-04-16T21:02:57.879Z,100996.30
2023-04-16T21:05:30.037Z,101001.04
2023-04-16T21:07:58.258Z,100997.38
2023-04-16T21:10:26.438Z,100997.15
2023-04-16T21:12:54.618Z,100992.61
2023-04-16T21:15:22.863Z,100996.84
2023-04-16T21:17:51.382Z,100995.13
2023-04-16T21:20:20.039Z,100992.95
2023-04-16T21:22:48.219Z,100987.07
2023-04-16T21:25:16.390Z,100987.64
2023-04-16T21:27:44.560Z,100984.77
2023-04-16T21:30:13.458Z,100983.75
2023-04-16T21:32:42.163Z,100980.50
2023-04-16T21:35:10.964Z,100975.55
2023-04-16T21:37:39.103Z,100972.55
2023-04-16T21:40:08.204Z,100965.02
2023-04-16T21:42:40.251Z,100961.41
2023-04-16T21:45:09.966Z,100963.36
2023-04-16T21:47:38.555Z,100966.73
2023-04-16T21:50:07.765Z,100971.73
2023-04-16T21:52:40.793Z,100965.61
2023-04-16T21:55:09.893Z,100965.98
2023-04-16T21:57:37.989Z,100964.86
2023-04-16T22:00:12.237Z,100962.76
2023-04-16T22:02:44.214Z,100960.81
2023-04-16T22:05:12.873Z,100963.22
2023-04-16T22:07:41.452Z,100970.31
2023-04-16T22:10:09.826Z,100970.48
2023-04-16T22:12:40.045Z,100976.05
2023-04-16T22:15:09.209Z,100977.30
2023-04-16T22:17:37.951Z,100983.16
2023-04-16T22:20:13.523Z,100983.86
2023-04-16T22:22:42.573Z,100986.55
2023-04-16T22:25:11.672Z,100986.66
2023-04-16T22:27:40.052Z,100982.95
2023-04-16T22:30:09.364Z,100986.15
2023-04-16T22:32:37.553Z,100985.98
2023-04-16T22:35:06.820Z,100984.02
2023-04-16T22:37:35.019Z,100981.98
2023-04-16T22:40:03.213Z,100982.63
2023-04-16T22:42:31.352Z,100983.45
2023-04-16T22:44:59.449Z,100977.18
2023-04-16T22:47:27.654Z,100975.36
2023-04-16T22:49:55.868Z,100974.23
2023-04-16T22:52:23.948Z,100972.29
2023-04-16T22:54:52.096Z,100979.33
2023-04-16T22:57:23.055Z,100973.41
2023-04-16T22:59:54.347Z,100969.52
2023-04-16T23:02:22.551Z,100973.29
2023-04-16T23:04:51.154Z,100974.20
2023-04-16T23:07:19.202Z,100974.65
2023-04-16T23:09:47.309Z,100969.68
2023-04-16T23:12:15.663Z,100969.48
2023-04-16T23:14:46.220Z,100968.52
2023-04-16T23:17:14.369Z,100965.42
2023-04-16T23:19:42.496Z,100959.75
2023-04-16T23:22:10.817Z,100961.61
2023-04-16T23:24:39.002Z,100957.92
2023-04-16T23:27:07.265Z,100948.96
2023-04-16T23:29:35.315Z,100951.66
2023-04-16T23:32:03.500Z,100955.40
2023-04-16T23:34:31.683Z,100959.67
2023-04-16T23:36:59.952Z,100962.04
2023-04-16T23:39:28.049Z,100962.16
2023-04-16T23:41:57.728Z,100962.32
2023-04-16T23:44:25.978Z,100961.14
2023-04-16T23:46:54.190Z,100965.23
2023-04-16T23:49:22.458Z,100960.45
2023-04-16T23:51:50.653Z,100967.23
2023-04-16T23:54:18.812Z,100967.04
2023-04-16T23:56:47.154Z,100965.70
2023-04-16T23:59:15.471Z,100965.64
